Time;durP1;ratioP1;P1;durP2;ratioP2;P2;SDS_P1;SDS_P2;PMS_P1;PMS_P2;Temp;Humidity;BMP_temperature;BMP_pressure;BME280_temperature;BME280_humidity;BME280_pressure;Samples;Min_cycle;Max_cycle;Signal;HPM_P1;HPM_P2
2021/06/08 00:01:51;;;;;;;2.10;1.87;;;18.10;99.90;;;;;;5010231;28;20210;-86
2021/06/08 00:04:17;;;;;;;2.20;1.13;;;18.10;99.90;;;;;;5015403;28;20202;-86
2021/06/08 00:06:43;;;;;;;1.53;1.43;;;18.00;99.90;;;;;;5013455;28;20178;-85
2021/06/08 00:09:09;;;;;;;0.73;0.73;;;18.00;99.90;;;;;;5013322;28;20237;-86
2021/06/08 00:11:35;;;;;;;2.07;1.13;;;18.00;99.90;;;;;;5013035;28;20674;-84
2021/06/08 00:14:01;;;;;;;2.10;1.77;;;18.00;99.90;;;;;;5015206;28;20175;-86
2021/06/08 00:16:26;;;;;;;1.93;1.50;;;18.00;99.90;;;;;;5014048;28;20693;-85
2021/06/08 00:18:52;;;;;;;1.13;1.03;;;18.00;99.90;;;;;;5013663;28;20175;-86
2021/06/08 00:21:17;;;;;;;1.73;1.43;;;17.90;99.90;;;;;;5012966;28;20210;-86
2021/06/08 00:23:43;;;;;;;2.47;1.83;;;18.00;99.90;;;;;;5013085;28;20706;-85
2021/06/08 00:26:09;;;;;;;1.40;1.30;;;18.00;99.90;;;;;;5010413;28;20573;-85
2021/06/08 00:28:34;;;;;;;0.50;0.50;;;18.00;99.90;;;;;;5008139;28;20273;-86
2021/06/08 00:31:00;;;;;;;1.47;0.83;;;18.00;99.90;;;;;;5010447;28;20175;-86
2021/06/08 00:33:25;;;;;;;0.60;0.60;;;18.00;99.90;;;;;;5012958;28;20665;-85
2021/06/08 00:35:51;;;;;;;0.70;0.70;;;18.10;99.90;;;;;;5012027;28;20214;-86
2021/06/08 00:38:17;;;;;;;4.40;1.10;;;18.10;99.90;;;;;;5011467;28;20268;-86
2021/06/08 00:40:44;;;;;;;1.53;1.30;;;17.90;99.90;;;;;;5013288;28;20191;-86
2021/06/08 00:43:10;;;;;;;1.07;1.00;;;17.90;99.90;;;;;;5004928;28;20190;-85
2021/06/08 00:45:36;;;;;;;1.23;1.13;;;17.80;99.90;;;;;;5014041;28;20225;-85
2021/06/08 00:48:01;;;;;;;0.93;0.60;;;17.80;99.90;;;;;;5012095;28;20269;-84
2021/06/08 00:50:27;;;;;;;0.60;0.60;;;17.70;99.90;;;;;;5014014;28;20211;-85
2021/06/08 00:52:53;;;;;;;0.53;0.53;;;17.70;99.90;;;;;;5011246;28;20195;-85
2021/06/08 00:55:20;;;;;;;1.13;0.63;;;17.80;99.90;;;;;;5008069;28;20214;-85
2021/06/08 00:57:45;;;;;;;0.77;0.77;;;17.80;99.90;;;;;;5011715;28;20241;-85
2021/06/08 01:00:12;;;;;;;1.37;0.70;;;17.80;99.90;;;;;;5019964;28;20202;-85
2021/06/08 01:02:37;;;;;;;0.50;0.50;;;17.70;99.90;;;;;;5012851;28;20225;-85
2021/06/08 01:05:08;;;;;;;0.90;0.90;;;17.80;99.90;;;;;;5012255;28;20202;-85
2021/06/08 01:07:34;;;;;;;0.70;0.70;;;17.80;99.90;;;;;;5013788;28;20194;-85
2021/06/08 01:10:03;;;;;;;0.63;0.63;;;17.90;99.90;;;;;;5012168;28;20181;-86
2021/06/08 01:12:28;;;;;;;0.43;0.20;;;17.90;99.90;;;;;;5012002;28;20200;-85
2021/06/08 01:14:54;;;;;;;0.70;0.70;;;17.90;99.90;;;;;;5013868;28;20586;-85
2021/06/08 01:17:20;;;;;;;0.77;0.77;;;17.90;99.90;;;;;;5011817;28;20229;-86
2021/06/08 01:19:46;;;;;;;0.67;0.67;;;18.00;99.90;;;;;;5009845;28;20189;-85
2021/06/08 01:22:13;;;;;;;1.50;0.53;;;18.00;99.90;;;;;;5009460;28;20225;-85
2021/06/08 01:24:39;;;;;;;0.10;0.10;;;18.10;99.90;;;;;;5010910;28;20305;-86
2021/06/08 01:27:06;;;;;;;0.70;0.70;;;18.10;99.90;;;;;;5008690;28;20271;-85
2021/06/08 01:29:34;;;;;;;0.97;0.97;;;18.10;99.90;;;;;;5011337;28;20317;-86
2021/06/08 01:32:02;;;;;;;0.80;0.80;;;18.10;99.90;;;;;;5008028;28;20195;-86
2021/06/08 01:34:28;;;;;;;0.73;0.70;;;18.10;99.90;;;;;;5011711;28;20400;-85
2021/06/08 01:36:55;;;;;;;0.90;0.90;;;18.10;99.90;;;;;;5010050;28;20200;-85
2021/06/08 01:39:21;;;;;;;0.87;0.60;;;18.00;99.90;;;;;;5011543;28;20194;-86
2021/06/08 01:41:47;;;;;;;1.10;1.00;;;18.10;99.90;;;;;;5013180;28;20224;-86
2021/06/08 01:44:13;;;;;;;0.47;0.40;;;18.10;99.90;;;;;;5011841;28;20236;-86
2021/06/08 01:46:39;;;;;;;0.43;0.43;;;18.20;99.90;;;;;;5011144;28;20652;-86
2021/06/08 01:49:05;;;;;;;1.60;1.30;;;17.90;99.90;;;;;;5010577;28;20234;-85
2021/06/08 01:51:39;;;;;;;1.30;0.70;;;17.90;99.90;;;;;;5011890;28;20198;-85
2021/06/08 01:54:15;;;;;;;1.00;0.67;;;17.80;99.90;;;;;;5011414;28;20197;-86
2021/06/08 01:56:44;;;;;;;0.83;0.83;;;17.60;99.90;;;;;;5009121;28;20287;-86
2021/06/08 01:59:27;;;;;;;0.67;0.67;;;17.50;99.90;;;;;;5013669;28;20277;-85
2021/06/08 02:01:58;;;;;;;0.60;0.60;;;17.40;99.90;;;;;;5005465;28;20223;-85
2021/06/08 02:04:27;;;;;;;0.97;0.93;;;17.30;99.90;;;;;;5011298;28;20202;-85
2021/06/08 02:07:05;;;;;;;0.90;0.80;;;17.30;99.90;;;;;;5010967;28;20197;-86
2021/06/08 02:09:37;;;;;;;0.57;0.57;;;17.40;99.90;;;;;;5011465;28;20201;-85
2021/06/08 02:12:21;;;;;;;0.40;0.40;;;17.50;99.90;;;;;;5011548;28;20275;-86
2021/06/08 02:14:58;;;;;;;0.67;0.60;;;17.50;99.90;;;;;;5011787;28;20217;-86
2021/06/08 02:17:30;;;;;;;0.73;0.70;;;17.70;99.90;;;;;;5010248;28;20186;-85
2021/06/08 02:20:01;;;;;;;0.80;0.80;;;17.80;99.90;;;;;;5011231;28;20647;-86
2021/06/08 02:22:29;;;;;;;0.90;0.50;;;17.90;99.90;;;;;;5009605;28;20208;-86
2021/06/08 02:24:55;;;;;;;0.83;0.80;;;18.00;99.90;;;;;;5012979;28;20406;-84
2021/06/08 02:27:23;;;;;;;1.23;0.80;;;18.10;99.90;;;;;;5010960;28;20639;-86
2021/06/08 02:29:51;;;;;;;1.40;0.80;;;18.10;99.90;;;;;;5011530;28;20277;-84
2021/06/08 02:32:18;;;;;;;0.43;0.43;;;18.20;99.90;;;;;;5012078;28;20249;-84
2021/06/08 02:34:45;;;;;;;1.00;0.60;;;18.10;99.90;;;;;;5010538;28;20208;-84
2021/06/08 02:37:12;;;;;;;2.43;0.73;;;18.20;99.90;;;;;;5009480;28;20280;-84
2021/06/08 02:39:42;;;;;;;0.40;0.40;;;18.20;99.90;;;;;;5011180;28;20249;-84
2021/06/08 02:42:10;;;;;;;0.97;0.83;;;18.20;99.90;;;;;;5008548;28;20220;-85
2021/06/08 02:44:37;;;;;;;0.37;0.30;;;18.10;99.90;;;;;;5013037;28;20223;-84
2021/06/08 02:47:03;;;;;;;0.43;0.43;;;18.00;99.90;;;;;;5008597;28;20253;-84
2021/06/08 02:49:29;;;;;;;1.20;0.73;;;18.00;99.90;;;;;;5009622;28;20675;-84
2021/06/08 02:51:56;;;;;;;1.17;0.90;;;17.80;99.90;;;;;;5010166;28;20281;-84
2021/06/08 02:54:22;;;;;;;0.67;0.67;;;17.70;99.90;;;;;;5010080;28;20275;-84
2021/06/08 02:56:49;;;;;;;0.60;0.60;;;17.70;99.90;;;;;;5009204;28;20226;-84
2021/06/08 02:59:15;;;;;;;1.57;0.80;;;17.60;99.90;;;;;;5008096;28;20668;-84
2021/06/08 03:01:45;;;;;;;0.27;0.27;;;17.70;99.90;;;;;;5007813;28;20293;-84
2021/06/08 03:04:15;;;;;;;0.67;0.67;;;17.80;99.90;;;;;;4994528;28;20209;-84
2021/06/08 03:06:54;;;;;;;0.93;0.40;;;17.80;99.90;;;;;;5004777;28;20324;-84
2021/06/08 03:09:36;;;;;;;0.40;0.40;;;17.80;99.90;;;;;;5008108;28;20198;-83
2021/06/08 03:12:08;;;;;;;0.47;0.47;;;17.90;99.90;;;;;;4990824;28;20241;-84
2021/06/08 03:14:34;;;;;;;0.70;0.63;;;17.80;99.90;;;;;;5010464;28;20250;-84
2021/06/08 03:17:02;;;;;;;0.80;0.80;;;17.90;99.90;;;;;;5008961;28;20197;-84
2021/06/08 03:19:33;;;;;;;0.70;0.57;;;17.70;99.90;;;;;;5009873;28;20213;-83
2021/06/08 03:22:02;;;;;;;1.47;0.50;;;17.80;99.90;;;;;;5002986;28;20228;-84
2021/06/08 03:24:32;;;;;;;1.50;0.87;;;17.80;99.90;;;;;;5010979;28;20212;-84
2021/06/08 03:26:59;;;;;;;0.90;0.90;;;17.80;99.90;;;;;;5008616;28;20189;-82
2021/06/08 03:29:26;;;;;;;0.43;0.43;;;17.90;99.90;;;;;;5025922;28;20201;-84
2021/06/08 03:31:52;;;;;;;0.87;0.87;;;17.80;99.90;;;;;;5010183;28;20197;-85
2021/06/08 03:34:19;;;;;;;0.27;0.27;;;17.70;99.90;;;;;;5010500;28;20298;-84
2021/06/08 03:36:50;;;;;;;1.13;0.50;;;17.70;99.90;;;;;;5011174;28;20310;-84
2021/06/08 03:39:17;;;;;;;1.67;0.90;;;17.60;99.90;;;;;;5006268;28;20191;-84
2021/06/08 03:41:44;;;;;;;0.60;0.60;;;17.60;99.90;;;;;;5009997;28;20211;-84
2021/06/08 03:44:13;;;;;;;0.50;0.50;;;17.50;99.90;;;;;;5009131;28;20230;-84
2021/06/08 03:46:39;;;;;;;1.33;1.23;;;17.50;99.90;;;;;;5009780;28;20277;-83
2021/06/08 03:49:05;;;;;;;1.10;1.07;;;17.60;99.90;;;;;;5009951;28;20260;-83
2021/06/08 03:51:32;;;;;;;0.60;0.60;;;17.70;99.90;;;;;;5008634;28;20667;-83
2021/06/08 03:53:59;;;;;;;0.77;0.77;;;17.80;99.90;;;;;;5010469;28;20206;-84
2021/06/08 03:56:26;;;;;;;0.47;0.47;;;17.80;99.90;;;;;;5006273;28;20196;-83
2021/06/08 03:58:55;;;;;;;0.90;0.90;;;17.80;99.90;;;;;;5003042;28;20198;-84
2021/06/08 04:01:22;;;;;;;0.90;0.87;;;17.70;99.90;;;;;;5007921;28;20585;-84
2021/06/08 04:03:49;;;;;;;0.57;0.50;;;17.70;99.90;;;;;;5009163;28;20395;-84
2021/06/08 04:06:16;;;;;;;0.73;0.67;;;17.70;99.90;;;;;;5007973;28;21526;-83
2021/06/08 04:08:42;;;;;;;0.30;0.30;;;17.80;99.90;;;;;;5009528;28;20187;-84
2021/06/08 04:11:16;;;;;;;0.53;0.53;;;17.90;99.90;;;;;;5009581;28;20183;-84
2021/06/08 04:13:42;;;;;;;0.50;0.50;;;18.00;99.90;;;;;;5006234;28;20215;-84
2021/06/08 04:16:11;;;;;;;0.60;0.60;;;18.10;99.90;;;;;;5010451;28;20371;-83
2021/06/08 04:18:37;;;;;;;0.87;0.87;;;18.10;99.90;;;;;;5011760;28;20195;-84
2021/06/08 04:21:03;;;;;;;0.53;0.53;;;18.00;99.90;;;;;;4998921;28;20224;-84
2021/06/08 04:23:30;;;;;;;0.87;0.87;;;17.90;99.90;;;;;;5005597;28;20186;-84
2021/06/08 04:25:57;;;;;;;0.50;0.50;;;17.90;99.90;;;;;;5000960;28;20206;-84
2021/06/08 04:28:23;;;;;;;0.70;0.70;;;17.90;99.90;;;;;;4999401;28;20628;-84
2021/06/08 04:30:50;;;;;;;0.80;0.67;;;17.90;99.90;;;;;;5000447;28;21153;-84
2021/06/08 04:33:23;;;;;;;1.33;1.27;;;17.90;99.90;;;;;;4999756;28;20241;-84
2021/06/08 04:35:49;;;;;;;0.80;0.80;;;18.00;99.90;;;;;;5007958;28;20214;-84
2021/06/08 04:38:16;;;;;;;0.47;0.47;;;17.80;99.90;;;;;;5007313;28;20188;-84
2021/06/08 04:40:46;;;;;;;0.67;0.57;;;18.10;99.90;;;;;;5013310;28;20202;-84
2021/06/08 04:43:12;;;;;;;1.30;1.00;;;18.10;99.90;;;;;;5012226;28;20205;-84
2021/06/08 04:45:39;;;;;;;0.40;0.40;;;18.00;99.90;;;;;;5008516;28;20216;-86
2021/06/08 04:48:05;;;;;;;0.93;0.67;;;18.10;99.90;;;;;;5013687;28;20265;-85
2021/06/08 04:50:31;;;;;;;0.67;0.67;;;18.30;99.90;;;;;;5010367;28;20194;-84
2021/06/08 04:52:57;;;;;;;1.03;0.87;;;18.20;99.90;;;;;;5012552;28;20227;-85
2021/06/08 04:55:25;;;;;;;0.63;0.63;;;18.20;99.90;;;;;;5013080;28;20218;-85
2021/06/08 04:57:52;;;;;;;0.90;0.80;;;18.10;99.90;;;;;;5011489;28;21846;-85
2021/06/08 05:00:20;;;;;;;0.67;0.67;;;18.30;99.90;;;;;;5010742;28;20187;-85
2021/06/08 05:02:55;;;;;;;0.80;0.80;;;18.30;99.90;;;;;;5013591;28;20246;-85
2021/06/08 05:05:26;;;;;;;0.50;0.47;;;18.50;99.90;;;;;;5012435;28;20217;-85
2021/06/08 05:08:05;;;;;;;1.50;0.60;;;18.70;99.90;;;;;;5012320;28;20624;-84
2021/06/08 05:10:33;;;;;;;0.60;0.60;;;18.90;99.90;;;;;;5006266;28;20273;-84
2021/06/08 05:12:59;;;;;;;0.67;0.63;;;18.80;99.90;;;;;;5016174;28;20192;-84
2021/06/08 05:15:27;;;;;;;0.63;0.60;;;18.80;99.90;;;;;;5004121;28;20239;-83
2021/06/08 05:17:55;;;;;;;2.43;0.70;;;19.00;99.90;;;;;;5009814;28;20194;-83
2021/06/08 05:20:22;;;;;;;6.67;1.83;;;18.90;99.90;;;;;;5008234;28;20210;-83
2021/06/08 05:22:50;;;;;;;0.47;0.47;;;18.90;99.90;;;;;;5008822;28;20654;-82
2021/06/08 05:25:16;;;;;;;0.80;0.80;;;19.10;99.90;;;;;;5008432;28;20211;-83
2021/06/08 05:27:42;;;;;;;3.73;0.40;;;19.20;99.90;;;;;;5014659;28;20716;-83
2021/06/08 05:30:09;;;;;;;0.57;0.57;;;19.30;99.90;;;;;;5003523;28;20202;-84
2021/06/08 05:32:38;;;;;;;0.53;0.53;;;19.40;99.90;;;;;;5010610;28;20187;-84
2021/06/08 05:35:08;;;;;;;0.77;0.77;;;19.60;99.90;;;;;;5007673;28;20211;-83
2021/06/08 05:37:42;;;;;;;0.60;0.40;;;19.50;99.90;;;;;;5010932;28;20248;-84
2021/06/08 05:40:09;;;;;;;0.60;0.60;;;19.50;99.90;;;;;;5010114;28;20191;-84
2021/06/08 05:42:35;;;;;;;0.60;0.60;;;19.70;99.90;;;;;;5008777;28;20218;-84
2021/06/08 05:45:01;;;;;;;1.43;1.00;;;19.80;99.90;;;;;;5018933;28;20561;-84
2021/06/08 05:47:27;;;;;;;0.30;0.30;;;20.00;99.90;;;;;;5011508;28;20197;-84
2021/06/08 05:49:52;;;;;;;1.43;0.80;;;20.10;99.90;;;;;;5011197;28;20183;-84
2021/06/08 05:52:19;;;;;;;2.53;0.77;;;20.00;99.90;;;;;;5009233;28;20538;-84
2021/06/08 05:54:45;;;;;;;1.43;0.67;;;20.10;99.90;;;;;;5011381;28;20221;-84
2021/06/08 05:57:11;;;;;;;0.67;0.67;;;20.20;99.90;;;;;;5011029;28;20192;-83
2021/06/08 05:59:38;;;;;;;0.90;0.90;;;20.10;99.90;;;;;;5005259;28;20691;-82
2021/06/08 06:02:05;;;;;;;1.90;0.80;;;20.10;99.90;;;;;;5012221;28;20221;-83
2021/06/08 06:04:31;;;;;;;0.47;0.47;;;20.20;99.90;;;;;;5013197;28;20207;-83
2021/06/08 06:06:58;;;;;;;0.80;0.63;;;20.30;99.90;;;;;;5011092;28;20194;-84
2021/06/08 06:09:25;;;;;;;0.43;0.43;;;20.40;99.90;;;;;;5011018;28;20599;-84
2021/06/08 06:11:54;;;;;;;0.80;0.80;;;20.00;99.90;;;;;;5006974;28;20265;-84
2021/06/08 06:14:21;;;;;;;0.67;0.57;;;20.10;99.90;;;;;;5011135;28;20592;-83
2021/06/08 06:16:50;;;;;;;1.00;1.00;;;20.30;99.90;;;;;;5009502;28;20611;-84
2021/06/08 06:19:15;;;;;;;0.80;0.77;;;20.50;99.90;;;;;;5006431;28;20187;-84
2021/06/08 06:21:41;;;;;;;0.87;0.80;;;20.70;99.90;;;;;;5011248;28;20217;-84
2021/06/08 06:24:11;;;;;;;1.00;0.73;;;20.80;99.90;;;;;;5009714;28;20194;-84
2021/06/08 06:26:39;;;;;;;0.37;0.37;;;20.90;99.90;;;;;;5007482;28;20212;-84
2021/06/08 06:29:05;;;;;;;0.80;0.80;;;20.90;99.90;;;;;;5001121;28;20187;-84
2021/06/08 06:31:32;;;;;;;0.63;0.63;;;20.90;99.90;;;;;;5006330;28;20198;-84
2021/06/08 06:33:58;;;;;;;0.80;0.80;;;20.90;99.90;;;;;;5011224;28;20646;-83
2021/06/08 06:36:27;;;;;;;0.73;0.70;;;20.90;99.90;;;;;;5006199;28;20200;-83
2021/06/08 06:38:57;;;;;;;1.33;0.60;;;20.80;99.90;;;;;;5011114;28;20191;-82
2021/06/08 06:41:23;;;;;;;0.70;0.70;;;20.80;99.90;;;;;;5009648;28;20219;-82
2021/06/08 06:43:55;;;;;;;0.73;0.50;;;20.70;99.90;;;;;;5011311;28;20196;-82
2021/06/08 06:46:22;;;;;;;0.70;0.70;;;20.70;99.90;;;;;;5006906;28;20187;-83
2021/06/08 06:48:52;;;;;;;0.77;0.53;;;20.60;99.90;;;;;;5011464;28;20547;-83
2021/06/08 06:51:18;;;;;;;0.60;0.60;;;20.70;99.90;;;;;;5010707;28;20193;-83
2021/06/08 06:53:47;;;;;;;0.60;0.60;;;20.20;99.90;;;;;;5011761;28;20245;-82
2021/06/08 06:56:12;;;;;;;1.33;1.13;;;20.00;99.90;;;;;;5012500;28;20221;-82
2021/06/08 06:58:41;;;;;;;0.83;0.83;;;19.80;99.90;;;;;;5010772;28;20273;-82
2021/06/08 07:01:07;;;;;;;0.77;0.77;;;19.90;99.90;;;;;;5010638;28;20305;-82
2021/06/08 07:03:34;;;;;;;0.50;0.50;;;19.90;99.90;;;;;;5009203;28;20218;-83
2021/06/08 07:06:01;;;;;;;0.80;0.80;;;19.80;99.90;;;;;;5012149;28;20199;-82
2021/06/08 07:08:28;;;;;;;1.30;0.80;;;19.90;99.90;;;;;;5004711;28;20183;-82
2021/06/08 07:10:55;;;;;;;0.80;0.80;;;20.00;99.90;;;;;;5009741;28;20191;-83
2021/06/08 07:13:21;;;;;;;0.90;0.90;;;20.10;99.90;;;;;;5005923;28;20187;-82
2021/06/08 07:15:52;;;;;;;0.60;0.60;;;20.30;99.90;;;;;;5016995;28;20206;-83
2021/06/08 07:18:18;;;;;;;1.37;0.97;;;20.40;99.90;;;;;;5008886;28;20190;-83
2021/06/08 07:20:44;;;;;;;0.53;0.53;;;20.60;99.90;;;;;;5005293;28;20764;-85
2021/06/08 07:23:16;;;;;;;0.80;0.80;;;20.80;99.90;;;;;;5008678;28;20223;-85
2021/06/08 07:25:41;;;;;;;1.13;0.83;;;20.90;99.90;;;;;;5011195;28;20199;-83
2021/06/08 07:28:09;;;;;;;0.50;0.50;;;21.10;99.90;;;;;;5007869;28;20202;-84
2021/06/08 07:30:36;;;;;;;1.00;0.97;;;21.20;99.90;;;;;;5008308;28;20215;-83
2021/06/08 07:33:13;;;;;;;0.67;0.67;;;21.30;99.90;;;;;;5008179;28;20193;-85
2021/06/08 07:35:54;;;;;;;0.90;0.80;;;21.30;99.90;;;;;;5005808;28;20724;-86
2021/06/08 07:38:27;;;;;;;0.23;0.23;;;21.20;99.90;;;;;;5004450;28;20198;-85
2021/06/08 07:41:03;;;;;;;1.50;0.80;;;21.30;99.90;;;;;;5009503;28;20600;-86
2021/06/08 07:43:35;;;;;;;0.40;0.40;;;21.40;99.90;;;;;;5007480;28;20701;-85
2021/06/08 07:46:06;;;;;;;0.60;0.53;;;21.60;99.90;;;;;;5000708;28;20219;-84
2021/06/08 07:48:34;;;;;;;0.67;0.67;;;21.80;99.90;;;;;;5003396;28;20648;-84
2021/06/08 07:51:04;;;;;;;0.30;0.30;;;21.90;99.90;;;;;;5007378;28;20253;-84
2021/06/08 07:53:32;;;;;;;0.73;0.73;;;21.80;99.90;;;;;;5012216;28;20187;-84
2021/06/08 07:55:58;;;;;;;0.83;0.67;;;21.80;99.90;;;;;;5013887;28;20205;-84
2021/06/08 07:58:25;;;;;;;0.57;0.57;;;21.80;99.90;;;;;;5013704;28;20206;-83
2021/06/08 08:00:53;;;;;;;0.70;0.70;;;21.80;99.90;;;;;;5013435;28;20274;-85
2021/06/08 08:03:28;;;;;;;0.50;0.50;;;21.80;99.90;;;;;;5014195;28;20187;-84
2021/06/08 08:06:13;;;;;;;0.67;0.63;;;21.80;99.90;;;;;;5013941;28;20207;-83
2021/06/08 08:08:39;;;;;;;0.27;0.27;;;21.80;99.90;;;;;;5013602;28;20186;-83
2021/06/08 08:11:16;;;;;;;0.43;0.43;;;21.80;99.90;;;;;;5014384;28;20802;-84
2021/06/08 08:13:46;;;;;;;1.40;1.30;;;21.80;99.90;;;;;;5010312;28;20648;-84
2021/06/08 08:16:13;;;;;;;0.70;0.70;;;21.80;99.90;;;;;;5011561;28;20203;-83
2021/06/08 08:18:41;;;;;;;1.10;1.00;;;21.90;99.90;;;;;;5011278;28;20187;-84
2021/06/08 08:21:09;;;;;;;0.73;0.73;;;21.80;99.90;;;;;;5005310;28;20183;-84
2021/06/08 08:23:36;;;;;;;0.70;0.70;;;21.80;99.90;;;;;;5005878;28;20187;-84
2021/06/08 08:26:04;;;;;;;0.90;0.90;;;21.50;99.90;;;;;;5008254;28;20211;-84
2021/06/08 08:28:31;;;;;;;1.07;1.07;;;21.30;99.90;;;;;;5011724;28;20191;-85
2021/06/08 08:31:01;;;;;;;0.80;0.70;;;21.50;99.90;;;;;;5006401;28;20647;-84
2021/06/08 08:33:29;;;;;;;2.57;1.27;;;21.70;99.90;;;;;;5013737;28;20202;-84
2021/06/08 08:35:56;;;;;;;1.00;1.00;;;21.90;99.90;;;;;;5004752;28;20253;-83
2021/06/08 08:38:22;;;;;;;0.83;0.60;;;22.10;99.90;;;;;;5010332;28;20662;-84
2021/06/08 08:40:48;;;;;;;0.70;0.63;;;22.30;99.90;;;;;;5010591;28;20599;-84
2021/06/08 08:43:14;;;;;;;2.73;0.97;;;22.40;99.90;;;;;;5011938;28;20640;-83
2021/06/08 08:45:41;;;;;;;1.50;0.53;;;22.60;99.90;;;;;;5007290;28;20223;-83
2021/06/08 08:48:07;;;;;;;0.67;0.60;;;22.50;99.90;;;;;;5012073;28;20180;-83
2021/06/08 08:50:33;;;;;;;0.63;0.63;;;22.80;99.90;;;;;;5013249;28;20187;-83
2021/06/08 08:53:03;;;;;;;0.77;0.77;;;23.10;99.90;;;;;;5014174;28;20187;-83
2021/06/08 08:55:33;;;;;;;0.53;0.53;;;23.10;99.90;;;;;;5010907;28;20211;-83
2021/06/08 08:58:00;;;;;;;0.67;0.67;;;23.30;99.90;;;;;;5013222;28;20195;-84
2021/06/08 09:00:29;;;;;;;0.50;0.50;;;23.10;99.90;;;;;;5009562;28;20202;-84
2021/06/08 09:03:01;;;;;;;0.70;0.70;;;23.10;99.90;;;;;;5008261;28;20281;-84
2021/06/08 09:05:28;;;;;;;0.93;0.90;;;23.20;99.90;;;;;;5011674;28;20206;-84
2021/06/08 09:07:54;;;;;;;2.10;1.73;;;22.70;99.90;;;;;;5010984;28;20253;-83
2021/06/08 09:10:21;;;;;;;1.17;1.17;;;22.40;99.90;;;;;;5012289;28;20241;-83
2021/06/08 09:12:48;;;;;;;0.73;0.73;;;22.30;99.90;;;;;;5011973;28;20195;-84
2021/06/08 09:15:13;;;;;;;1.20;1.10;;;22.70;99.90;;;;;;5011814;28;20207;-83
2021/06/08 09:17:39;;;;;;;2.03;1.13;;;22.60;99.90;;;;;;5001627;28;20703;-84
2021/06/08 09:20:10;;;;;;;3.77;2.37;;;22.40;99.90;;;;;;5012667;28;20662;-84
2021/06/08 09:22:52;;;;;;;0.93;0.90;;;22.20;99.90;;;;;;5006732;28;20219;-84
2021/06/08 09:25:42;;;;;;;1.50;1.10;;;22.00;99.90;;;;;;5009442;28;20211;-84
2021/06/08 09:28:17;;;;;;;1.00;0.77;;;22.20;99.90;;;;;;5003154;28;20662;-83
2021/06/08 09:30:43;;;;;;;1.67;0.90;;;22.50;99.90;;;;;;5008310;28;20178;-84
2021/06/08 09:33:19;;;;;;;1.07;0.93;;;22.90;99.90;;;;;;5003903;28;20568;-84
2021/06/08 09:35:50;;;;;;;0.97;0.70;;;23.40;99.90;;;;;;5011917;28;20210;-84
2021/06/08 09:38:16;;;;;;;0.77;0.77;;;23.60;99.90;;;;;;5009509;28;20240;-84
2021/06/08 09:40:42;;;;;;;0.97;0.77;;;23.60;99.90;;;;;;5012759;28;20277;-84
2021/06/08 09:43:10;;;;;;;1.13;1.03;;;24.00;99.90;;;;;;5010335;28;20400;-85
2021/06/08 09:45:41;;;;;;;1.20;1.10;;;24.30;99.90;;;;;;5011174;28;20250;-86
2021/06/08 09:48:07;;;;;;;2.57;0.87;;;23.30;99.90;;;;;;5008350;28;20269;-84
2021/06/08 09:50:35;;;;;;;1.40;0.87;;;23.50;99.90;;;;;;5010108;28;20270;-85
2021/06/08 09:53:19;;;;;;;1.00;0.97;;;24.00;99.90;;;;;;5008264;28;20201;-85
2021/06/08 09:55:49;;;;;;;0.90;0.80;;;24.50;99.90;;;;;;5010994;28;20885;-85
2021/06/08 09:58:15;;;;;;;1.47;1.37;;;24.90;99.90;;;;;;5011868;28;20189;-85
2021/06/08 10:00:40;;;;;;;1.00;0.90;;;24.40;99.90;;;;;;5011740;28;20187;-85
2021/06/08 10:03:06;;;;;;;1.50;1.40;;;24.20;99.90;;;;;;5008506;28;20730;-85
2021/06/08 10:05:32;;;;;;;1.30;0.73;;;24.30;99.90;;;;;;5011515;28;20211;-85
2021/06/08 10:07:58;;;;;;;0.67;0.40;;;25.00;99.90;;;;;;5008336;28;20932;-84
2021/06/08 10:10:36;;;;;;;1.13;0.80;;;25.30;99.90;;;;;;5008046;28;20182;-85
2021/06/08 10:13:08;;;;;;;1.63;1.07;;;25.00;99.90;;;;;;5010193;28;20186;-85
2021/06/08 10:15:49;;;;;;;0.87;0.87;;;24.80;99.90;;;;;;5008829;28;20211;-85
2021/06/08 10:18:15;;;;;;;0.77;0.70;;;24.90;99.90;;;;;;5001408;28;20193;-85
2021/06/08 10:20:51;;;;;;;0.70;0.70;;;24.80;99.90;;;;;;5001760;28;20195;-85
2021/06/08 10:23:28;;;;;;;1.63;1.53;;;25.00;99.90;;;;;;4992389;28;20226;-85
2021/06/08 10:25:58;;;;;;;2.13;0.93;;;24.60;99.90;;;;;;5011086;28;20203;-85
2021/06/08 10:28:24;;;;;;;0.70;0.70;;;24.30;99.90;;;;;;5010016;28;20744;-85
2021/06/08 10:30:51;;;;;;;1.97;1.70;;;24.20;99.90;;;;;;5001725;28;20191;-85
2021/06/08 10:33:17;;;;;;;1.20;1.13;;;24.30;99.90;;;;;;5009542;28;20572;-85
2021/06/08 10:35:44;;;;;;;1.07;1.00;;;23.90;99.90;;;;;;5010300;28;20234;-85
2021/06/08 10:38:11;;;;;;;0.80;0.80;;;24.50;99.90;;;;;;5004954;28;20191;-85
2021/06/08 10:40:39;;;;;;;1.17;1.00;;;24.90;99.90;;;;;;5006257;28;20739;-85
2021/06/08 10:43:06;;;;;;;0.70;0.70;;;25.50;99.90;;;;;;5002638;28;20305;-86
2021/06/08 10:45:37;;;;;;;0.87;0.87;;;26.20;99.90;;;;;;5010723;28;20244;-85
2021/06/08 10:48:17;;;;;;;1.00;0.80;;;26.10;99.90;;;;;;5005237;28;20674;-85
2021/06/08 10:50:48;;;;;;;1.17;1.00;;;26.30;99.90;;;;;;5012233;28;20183;-85
2021/06/08 10:53:30;;;;;;;0.87;0.67;;;26.30;99.90;;;;;;5010462;28;20726;-85
2021/06/08 10:55:56;;;;;;;1.20;1.10;;;26.30;99.90;;;;;;5009446;28;20253;-84
2021/06/08 10:58:44;;;;;;;0.97;0.93;;;25.70;99.90;;;;;;5007489;28;20195;-84
2021/06/08 11:01:42;;;;;;;1.50;1.10;;;25.60;99.90;;;;;;5009228;28;20277;-85
2021/06/08 11:04:19;;;;;;;0.77;0.63;;;25.60;99.90;;;;;;5009802;28;20198;-85
2021/06/08 11:06:52;;;;;;;1.40;1.30;;;25.70;99.90;;;;;;5008705;28;20260;-86
2021/06/08 11:09:23;;;;;;;1.10;0.73;;;25.80;99.90;;;;;;5009667;28;20191;-85
2021/06/08 11:11:58;;;;;;;0.73;0.73;;;26.20;99.90;;;;;;5009593;28;20190;-85
2021/06/08 11:14:32;;;;;;;1.40;1.30;;;25.50;99.90;;;;;;5009702;28;20210;-85
2021/06/08 11:17:05;;;;;;;3.10;2.27;;;25.80;99.90;;;;;;5009538;28;20194;-86
2021/06/08 11:19:51;;;;;;;1.27;1.23;;;25.90;99.90;;;;;;5009440;28;20638;-86
2021/06/08 11:22:41;;;;;;;0.80;0.80;;;26.00;99.90;;;;;;5004827;28;20253;-85
2021/06/08 11:25:28;;;;;;;0.90;0.90;;;26.30;99.90;;;;;;4995594;28;20203;-85
2021/06/08 11:27:58;;;;;;;2.03;1.83;;;26.40;99.90;;;;;;5006246;28;20721;-86
2021/06/08 11:30:33;;;;;;;1.53;1.30;;;26.40;99.90;;;;;;5011360;28;20191;-86
2021/06/08 11:33:02;;;;;;;1.20;1.10;;;25.00;99.90;;;;;;5011300;28;20679;-86
2021/06/08 11:35:42;;;;;;;1.03;0.90;;;25.10;99.90;;;;;;5005105;28;20250;-86
2021/06/08 11:38:25;;;;;;;3.27;0.80;;;25.50;99.90;;;;;;5010428;28;20186;-85
2021/06/08 11:41:02;;;;;;;1.83;1.57;;;26.10;99.90;;;;;;5013654;28;20249;-84
2021/06/08 11:43:28;;;;;;;1.47;1.07;;;25.80;99.90;;;;;;5009824;28;20547;-85
2021/06/08 11:46:14;;;;;;;1.27;1.17;;;25.90;99.90;;;;;;5013702;28;20218;-86
2021/06/08 11:49:03;;;;;;;1.13;0.97;;;26.40;99.90;;;;;;5012241;28;20210;-85
2021/06/08 11:51:34;;;;;;;1.23;1.20;;;25.50;99.90;;;;;;5011783;28;20198;-85
2021/06/08 11:54:13;;;;;;;2.07;1.57;;;25.70;99.90;;;;;;5004944;28;20186;-85
2021/06/08 11:56:58;;;;;;;1.20;1.07;;;26.30;99.90;;;;;;5011708;28;20215;-86
2021/06/08 11:59:32;;;;;;;1.13;0.97;;;26.30;99.90;;;;;;5006768;28;20238;-86
2021/06/08 12:02:02;;;;;;;1.20;0.93;;;26.40;99.90;;;;;;5006245;28;20227;-85
2021/06/08 12:04:30;;;;;;;1.13;0.93;;;27.30;99.90;;;;;;5008074;28;20587;-86
2021/06/08 12:07:07;;;;;;;1.50;1.40;;;26.70;99.90;;;;;;5007683;28;20310;-85
2021/06/08 12:09:35;;;;;;;1.20;1.17;;;26.90;99.90;;;;;;5010299;28;20706;-86
2021/06/08 12:12:10;;;;;;;1.70;1.30;;;26.80;99.90;;;;;;5009557;28;20253;-86
2021/06/08 12:14:44;;;;;;;1.67;1.17;;;27.70;99.90;;;;;;5012830;28;20221;-86
2021/06/08 12:17:10;;;;;;;2.10;1.70;;;27.60;99.90;;;;;;5011301;28;20191;-85
2021/06/08 12:19:36;;;;;;;1.33;1.20;;;26.20;99.90;;;;;;5013853;28;20187;-85
2021/06/08 12:22:23;;;;;;;0.80;0.80;;;26.50;99.90;;;;;;5009850;28;20710;-86
2021/06/08 12:25:03;;;;;;;2.90;1.43;;;26.40;99.90;;;;;;5009310;28;20214;-86
2021/06/08 12:27:46;;;;;;;0.93;0.93;;;26.00;99.90;;;;;;5010002;28;20187;-86
2021/06/08 12:30:28;;;;;;;1.07;1.03;;;25.90;99.90;;;;;;5003964;28;20187;-85
2021/06/08 12:33:05;;;;;;;2.30;1.10;;;25.90;99.90;;;;;;5010948;28;20191;-87
2021/06/08 12:35:46;;;;;;;1.67;1.37;;;25.80;99.90;;;;;;5007311;28;20210;-85
2021/06/08 12:38:21;;;;;;;3.13;1.37;;;26.20;99.90;;;;;;5011307;28;20274;-85
2021/06/08 12:41:17;;;;;;;2.50;1.70;;;25.00;99.90;;;;;;5012537;28;20678;-86
2021/06/08 12:43:52;;;;;;;2.10;1.27;;;25.00;99.90;;;;;;5002540;28;20675;-85
2021/06/08 12:46:29;;;;;;;1.47;1.37;;;24.90;99.90;;;;;;5008701;28;20182;-86
2021/06/08 12:49:13;;;;;;;1.70;1.60;;;24.80;99.90;;;;;;5012779;28;20186;-86
2021/06/08 12:51:46;;;;;;;1.53;1.17;;;24.90;99.90;;;;;;5012984;28;20222;-85
2021/06/08 12:54:45;;;;;;;1.60;1.10;;;25.20;99.90;;;;;;5013047;28;20564;-86
2021/06/08 12:57:32;;;;;;;1.47;1.37;;;25.50;99.90;;;;;;5009358;28;20303;-86
2021/06/08 13:00:02;;;;;;;1.50;1.03;;;26.10;99.90;;;;;;5016000;28;20656;-85
2021/06/08 13:02:29;;;;;;;0.77;0.77;;;26.00;99.90;;;;;;5010404;28;20234;-85